createdAt,value
2023-01-10T00:01:59.411Z,9.79
2023-01-10T00:04:28.738Z,9.77
2023-01-10T00:06:56.710Z,9.77
2023-01-10T00:09:24.601Z,9.78
2023-01-10T00:12:09.934Z,9.73
2023-01-10T00:14:37.872Z,9.62
2023-01-10T00:17:07.154Z,9.56
2023-01-10T00:19:35.120Z,9.54
2023-01-10T00:22:12.552Z,9.56
2023-01-10T00:24:42.343Z,9.56
2023-01-10T00:27:17.100Z,9.55
2023-01-10T00:29:46.174Z,9.61
2023-01-10T00:32:15.501Z,9.70
2023-01-10T00:34:43.472Z,9.74
2023-01-10T00:37:11.472Z,9.88
2023-01-10T00:39:39.427Z,9.99
2023-01-10T00:42:25.146Z,10.08
2023-01-10T00:44:53.071Z,10.17
2023-01-10T00:47:22.387Z,10.28
2023-01-10T00:49:50.346Z,10.33
2023-01-10T00:52:18.296Z,10.38
2023-01-10T00:54:46.301Z,10.37
2023-01-10T00:57:14.304Z,10.30
2023-01-10T00:59:42.222Z,10.38
2023-01-10T01:02:10.234Z,10.36
2023-01-10T01:04:39.599Z,10.36
2023-01-10T01:07:07.555Z,10.33
2023-01-10T01:09:55.510Z,10.33
2023-01-10T01:12:23.426Z,10.34
2023-01-10T01:14:51.417Z,10.31
2023-01-10T01:17:19.370Z,10.35
2023-01-10T01:19:48.654Z,10.34
2023-01-10T01:22:16.607Z,10.38
2023-01-10T01:24:44.568Z,10.37
2023-01-10T01:27:12.490Z,10.40
2023-01-10T01:29:43.455Z,10.36
2023-01-10T01:32:11.953Z,10.35
2023-01-10T01:34:39.941Z,10.37
2023-01-10T01:37:09.304Z,10.37
2023-01-10T01:39:37.257Z,10.37
2023-01-10T01:42:06.073Z,10.36
2023-01-10T01:44:34.577Z,10.41
2023-01-10T01:47:04.800Z,10.47
2023-01-10T01:49:32.844Z,10.48
2023-01-10T01:52:02.570Z,10.48
2023-01-10T01:54:31.975Z,10.48
2023-01-10T01:57:01.920Z,10.40
2023-01-10T01:59:30.763Z,10.40
2023-01-10T02:02:00.911Z,10.47
2023-01-10T02:04:30.701Z,10.46
2023-01-10T02:06:58.631Z,10.51
2023-01-10T02:09:28.060Z,10.56
2023-01-10T02:11:57.387Z,10.66
2023-01-10T02:14:25.709Z,10.68
2023-01-10T02:16:53.647Z,10.77
2023-01-10T02:19:25.830Z,10.78
2023-01-10T02:22:05.846Z,10.81
2023-01-10T02:24:57.297Z,10.86
2023-01-10T02:27:27.696Z,10.87
2023-01-10T02:30:18.309Z,10.88
2023-01-10T02:33:00.620Z,10.98
2023-01-10T02:35:44.014Z,11.03
2023-01-10T02:38:17.051Z,10.92
2023-01-10T02:40:48.433Z,11.11
2023-01-10T02:43:18.550Z,11.09
2023-01-10T02:45:48.712Z,11.12
2023-01-10T02:48:19.113Z,11.20
2023-01-10T02:50:58.624Z,11.16
2023-01-10T02:53:28.137Z,11.18
2023-01-10T02:56:04.413Z,11.16
2023-01-10T02:58:39.132Z,11.16
2023-01-10T03:01:08.024Z,11.18
2023-01-10T03:03:41.520Z,11.10
2023-01-10T03:06:17.257Z,11.11
2023-01-10T03:08:49.472Z,11.12
2023-01-10T03:11:37.496Z,11.21
2023-01-10T03:14:05.439Z,11.25
2023-01-10T03:16:33.583Z,11.21
2023-01-10T03:19:04.229Z,11.13
2023-01-10T03:21:32.568Z,11.10
2023-01-10T03:24:02.897Z,11.04
2023-01-10T03:26:32.064Z,11.13
2023-01-10T03:29:02.071Z,11.12
2023-01-10T03:31:32.768Z,11.08
2023-01-10T03:34:02.071Z,11.16
2023-01-10T03:36:32.082Z,11.21
2023-01-10T03:39:05.041Z,11.15
2023-01-10T03:41:36.344Z,11.13
2023-01-10T03:44:25.944Z,11.01
2023-01-10T03:46:56.071Z,11.18
2023-01-10T03:49:25.705Z,11.10
2023-01-10T03:51:53.796Z,11.11
2023-01-10T03:54:21.772Z,11.06
2023-01-10T03:56:50.909Z,11.03
2023-01-10T03:59:19.223Z,11.05
2023-01-10T04:01:47.295Z,11.15
2023-01-10T04:04:15.326Z,11.23
2023-01-10T04:06:44.713Z,11.17
2023-01-10T04:09:12.675Z,11.10
2023-01-10T04:11:40.600Z,11.07
2023-01-10T04:14:08.609Z,11.05
2023-01-10T04:16:36.626Z,11.18
2023-01-10T04:19:04.592Z,11.23
2023-01-10T04:21:32.590Z,11.25
2023-01-10T04:24:01.961Z,11.27
2023-01-10T04:26:29.995Z,11.26
2023-01-10T04:28:57.940Z,11.34
2023-01-10T04:31:27.185Z,11.33
2023-01-10T04:33:55.159Z,11.32
2023-01-10T04:36:23.149Z,11.33
2023-01-10T04:38:51.206Z,11.32
2023-01-10T04:41:20.578Z,11.30
2023-01-10T04:43:49.805Z,11.26
2023-01-10T04:46:17.769Z,11.29
2023-01-10T04:48:45.711Z,11.39
2023-01-10T04:51:13.681Z,11.31
2023-01-10T04:53:41.626Z,11.18
2023-01-10T04:56:10.982Z,11.23
2023-01-10T04:58:40.412Z,11.30
2023-01-10T05:01:09.649Z,11.27
2023-01-10T05:03:37.586Z,11.24
2023-01-10T05:06:06.069Z,11.29
2023-01-10T05:08:34.055Z,11.22
2023-01-10T05:11:02.008Z,11.33
2023-01-10T05:13:29.935Z,11.38
2023-01-10T05:15:59.266Z,11.37
2023-01-10T05:18:27.396Z,11.40
2023-01-10T05:21:00.221Z,11.41
2023-01-10T05:23:28.297Z,11.37
2023-01-10T05:25:56.339Z,11.25
2023-01-10T05:28:24.338Z,11.35
2023-01-10T05:30:52.265Z,11.40
2023-01-10T05:33:21.541Z,11.38
2023-01-10T05:35:49.533Z,11.37
2023-01-10T05:38:17.436Z,11.33
2023-01-10T05:40:45.354Z,11.36
2023-01-10T05:43:13.283Z,11.38
2023-01-10T05:45:41.303Z,11.45
2023-01-10T05:48:09.284Z,11.49
2023-01-10T05:50:38.603Z,11.44
2023-01-10T05:53:07.352Z,11.53
2023-01-10T05:55:35.383Z,11.55
2023-01-10T05:58:03.629Z,11.61
2023-01-10T06:00:31.570Z,11.69
2023-01-10T06:02:59.564Z,11.79
2023-01-10T06:05:27.523Z,11.87
2023-01-10T06:07:56.796Z,12.05
2023-01-10T06:10:26.968Z,12.13
2023-01-10T06:12:55.187Z,12.20
2023-01-10T06:15:23.191Z,12.30
2023-01-10T06:17:51.174Z,12.24
2023-01-10T06:20:19.230Z,12.33
2023-01-10T06:22:47.187Z,12.35
2023-01-10T06:25:16.647Z,12.47
2023-01-10T06:27:44.766Z,12.54
2023-01-10T06:30:13.716Z,12.69
2023-01-10T06:32:42.491Z,12.72
2023-01-10T06:35:11.020Z,12.79
2023-01-10T06:37:39.652Z,12.81
2023-01-10T06:40:08.735Z,12.79
2023-01-10T06:42:38.738Z,12.90
2023-01-10T06:45:07.560Z,12.96
2023-01-10T06:47:35.633Z,12.92
2023-01-10T06:50:03.822Z,12.93
2023-01-10T06:52:31.746Z,12.95
2023-01-10T06:54:59.691Z,12.93
2023-01-10T06:57:28.372Z,12.99
2023-01-10T06:59:57.714Z,13.04
2023-01-10T07:02:25.635Z,13.20
2023-01-10T07:04:53.551Z,13.21
2023-01-10T07:07:21.598Z,13.18
2023-01-10T07:09:49.583Z,13.04
2023-01-10T07:12:17.881Z,13.07
2023-01-10T07:14:45.860Z,13.20
2023-01-10T07:17:15.182Z,13.24
2023-01-10T07:19:43.085Z,13.26
2023-01-10T07:22:11.029Z,13.34
2023-01-10T07:24:38.957Z,13.41
2023-01-10T07:27:06.889Z,13.51
2023-01-10T07:29:34.813Z,13.58
2023-01-10T07:32:02.747Z,13.68
2023-01-10T07:34:32.032Z,13.69
2023-01-10T07:36:59.954Z,13.72
2023-01-10T07:39:27.866Z,13.79
2023-01-10T07:41:56.367Z,13.77
2023-01-10T07:44:24.296Z,13.81
2023-01-10T07:46:52.299Z,13.87
2023-01-10T07:49:20.256Z,13.91
2023-01-10T07:51:49.546Z,13.95
2023-01-10T07:54:17.510Z,13.96
2023-01-10T07:56:47.479Z,13.92
2023-01-10T07:59:15.451Z,13.98
2023-01-10T08:01:43.368Z,13.95
2023-01-10T08:04:11.336Z,13.96
2023-01-10T08:06:39.297Z,13.92
2023-01-10T08:09:08.604Z,13.80
2023-01-10T08:11:36.527Z,13.77
2023-01-10T08:14:04.469Z,13.73
2023-01-10T08:16:32.443Z,13.65
2023-01-10T08:19:00.367Z,13.63
2023-01-10T08:21:28.321Z,13.61
2023-01-10T08:23:56.244Z,13.56
2023-01-10T08:26:25.538Z,13.46
2023-01-10T08:28:53.542Z,13.41
2023-01-10T08:31:21.498Z,13.34
2023-01-10T08:33:49.510Z,13.29
2023-01-10T08:36:17.978Z,13.32
2023-01-10T08:38:46.120Z,13.30
2023-01-10T08:41:14.287Z,13.32
2023-01-10T08:43:43.624Z,13.34
2023-01-10T08:46:11.671Z,13.33
2023-01-10T08:48:39.788Z,13.22
2023-01-10T08:51:09.222Z,13.08
2023-01-10T08:53:37.171Z,12.91
2023-01-10T08:56:05.748Z,12.81
2023-01-10T08:58:33.796Z,12.76
2023-01-10T09:01:05.121Z,12.78
2023-01-10T09:03:33.146Z,12.64
2023-01-10T09:06:01.074Z,12.65
2023-01-10T09:08:29.095Z,12.70
2023-01-10T09:10:59.411Z,12.80
2023-01-10T09:13:27.345Z,12.91
2023-01-10T09:15:55.345Z,12.95
2023-01-10T09:18:24.855Z,12.98
2023-01-10T09:20:52.809Z,13.02
2023-01-10T09:23:21.937Z,13.02
2023-01-10T09:25:50.836Z,13.01
2023-01-10T09:28:19.017Z,13.01
2023-01-10T09:30:46.987Z,13.02
2023-01-10T09:33:15.413Z,13.08
2023-01-10T09:35:44.709Z,13.10
2023-01-10T09:38:14.686Z,13.17
2023-01-10T09:40:53.225Z,13.28
2023-01-10T09:43:23.770Z,13.39
2023-01-10T09:45:54.858Z,13.53
2023-01-10T09:48:26.036Z,13.63
2023-01-10T09:51:04.212Z,13.66
2023-01-10T09:53:33.365Z,13.74
2023-01-10T09:56:01.318Z,13.76
2023-01-10T09:58:31.243Z,13.78
2023-01-10T10:00:59.859Z,13.77
2023-01-10T10:03:31.160Z,13.96
2023-01-10T10:06:11.097Z,14.03
2023-01-10T10:08:40.249Z,14.10
2023-01-10T10:11:17.386Z,14.20
2023-01-10T10:13:49.964Z,14.27
2023-01-10T10:16:25.809Z,14.23
2023-01-10T10:18:59.259Z,14.27
2023-01-10T10:21:30.303Z,14.30
2023-01-10T10:24:12.420Z,14.32
2023-01-10T10:26:42.359Z,14.33
2023-01-10T10:29:55.014Z,14.33
2023-01-10T10:33:00.152Z,14.41
2023-01-10T10:35:30.062Z,14.57
2023-01-10T10:38:00.243Z,14.79
2023-01-10T10:40:31.331Z,14.96
2023-01-10T10:43:00.223Z,14.97
2023-01-10T10:45:33.886Z,15.06
2023-01-10T10:48:03.487Z,15.17
2023-01-10T10:50:33.072Z,15.21
2023-01-10T10:53:02.873Z,15.20
2023-01-10T10:55:32.109Z,15.16
2023-01-10T10:58:01.095Z,15.01
2023-01-10T11:00:29.349Z,14.62
2023-01-10T11:02:59.879Z,14.36
2023-01-10T11:05:33.430Z,14.14
2023-01-10T11:08:06.490Z,14.11
2023-01-10T11:10:37.068Z,14.15
2023-01-10T11:13:06.694Z,14.20
2023-01-10T11:15:42.110Z,14.09
2023-01-10T11:18:13.113Z,14.00
2023-01-10T11:20:48.614Z,13.85
2023-01-10T11:23:25.469Z,13.76
2023-01-10T11:25:53.442Z,13.67
2023-01-10T11:28:23.733Z,13.77
2023-01-10T11:30:51.940Z,13.73
2023-01-10T11:33:21.951Z,13.76
2023-01-10T11:36:01.517Z,13.64
2023-01-10T11:38:31.205Z,13.49
2023-01-10T11:41:00.502Z,13.17
2023-01-10T11:43:31.373Z,13.04
2023-01-10T11:46:02.439Z,12.77
2023-01-10T11:49:04.188Z,12.63
2023-01-10T11:51:33.356Z,12.50
2023-01-10T11:54:03.200Z,12.45
2023-01-10T11:56:32.457Z,12.35
2023-01-10T11:59:01.620Z,12.35
2023-01-10T12:01:32.226Z,12.28
2023-01-10T12:04:00.223Z,12.32
2023-01-10T12:06:28.152Z,12.29
2023-01-10T12:08:58.091Z,12.16
2023-01-10T12:11:30.175Z,12.08
2023-01-10T12:13:58.836Z,12.14
2023-01-10T12:16:27.832Z,11.98
2023-01-10T12:18:57.308Z,11.96
2023-01-10T12:21:33.585Z,11.97
2023-01-10T12:24:03.691Z,11.98
2023-01-10T12:26:33.643Z,12.04
2023-01-10T12:29:04.971Z,12.03
2023-01-10T12:31:32.934Z,12.06
2023-01-10T12:34:02.501Z,12.01
2023-01-10T12:36:35.873Z,11.92
2023-01-10T12:39:11.308Z,11.90
2023-01-10T12:42:11.666Z,11.96
2023-01-10T12:44:42.256Z,11.94
2023-01-10T12:47:19.484Z,11.88
2023-01-10T12:49:50.323Z,11.73
2023-01-10T12:52:21.960Z,11.64
2023-01-10T12:54:51.117Z,11.66
2023-01-10T12:57:25.446Z,11.51
2023-01-10T12:59:53.656Z,11.51
2023-01-10T13:02:25.053Z,11.33
2023-01-10T13:04:53.738Z,11.38
2023-01-10T13:07:21.674Z,11.30
2023-01-10T13:09:49.642Z,11.18
2023-01-10T13:12:21.390Z,10.99
2023-01-10T13:14:57.501Z,10.82
2023-01-10T13:17:30.424Z,10.57
2023-01-10T13:20:30.217Z,10.43
2023-01-10T13:22:58.685Z,10.15
2023-01-10T13:25:27.722Z,10.12
2023-01-10T13:27:59.474Z,10.01
2023-01-10T13:30:30.475Z,9.88
2023-01-10T13:33:01.964Z,9.89
2023-01-10T13:35:29.859Z,9.82
2023-01-10T13:37:57.811Z,9.72
2023-01-10T13:40:28.210Z,9.25
2023-01-10T13:43:34.347Z,8.93
2023-01-10T13:46:48.657Z,8.76
2023-01-10T13:49:45.701Z,8.65
2023-01-10T13:52:40.349Z,8.63
2023-01-10T13:55:27.765Z,8.46
2023-01-10T13:57:57.216Z,8.43
2023-01-10T14:00:44.638Z,8.44
2023-01-10T14:03:40.789Z,8.38
2023-01-10T14:06:13.182Z,8.31
2023-01-10T14:08:41.258Z,8.35
2023-01-10T14:11:09.876Z,8.20
2023-01-10T14:13:37.831Z,8.06
2023-01-10T14:16:08.857Z,8.00
2023-01-10T14:18:39.152Z,7.72
2023-01-10T14:21:07.932Z,7.70
2023-01-10T14:23:37.793Z,7.51
2023-01-10T14:26:05.752Z,7.45
2023-01-10T14:28:35.073Z,7.41
2023-01-10T14:31:05.115Z,7.35
2023-01-10T14:33:35.256Z,7.39
2023-01-10T14:36:04.824Z,7.38
2023-01-10T14:38:33.786Z,7.31
2023-01-10T14:41:04.060Z,7.26
2023-01-10T14:43:34.572Z,7.25
2023-01-10T14:46:04.443Z,7.13
2023-01-10T14:48:33.289Z,6.91
2023-01-10T14:51:11.643Z,6.78
2023-01-10T14:53:39.731Z,6.58
2023-01-10T14:56:20.635Z,6.44
2023-01-10T14:58:48.630Z,6.31
2023-01-10T15:01:22.235Z,5.99
2023-01-10T15:03:50.253Z,5.84
2023-01-10T15:06:18.215Z,5.83
2023-01-10T15:08:46.179Z,5.69
2023-01-10T15:11:14.475Z,5.67
2023-01-10T15:13:47.083Z,5.64
2023-01-10T15:16:18.132Z,5.57
2023-01-10T15:18:46.157Z,5.44
2023-01-10T15:21:14.212Z,5.34
2023-01-10T15:23:43.185Z,5.35
2023-01-10T15:26:15.003Z,5.31
2023-01-10T15:28:48.606Z,5.31
2023-01-10T15:31:17.380Z,5.25
2023-01-10T15:33:46.283Z,5.19
2023-01-10T15:36:15.641Z,5.13
2023-01-10T15:38:44.719Z,5.18
2023-01-10T15:41:17.968Z,5.20
2023-01-10T15:43:47.319Z,5.08
2023-01-10T15:46:19.380Z,5.11
2023-01-10T15:48:55.489Z,5.16
2023-01-10T15:51:26.144Z,5.18
2023-01-10T15:53:57.444Z,5.23
2023-01-10T15:56:27.579Z,5.30
2023-01-10T15:58:57.003Z,5.23
2023-01-10T16:01:28.316Z,5.25
2023-01-10T16:03:57.684Z,5.30
2023-01-10T16:06:27.038Z,5.34
2023-01-10T16:08:55.948Z,5.39
2023-01-10T16:11:47.032Z,5.36
2023-01-10T16:14:16.319Z,5.51
2023-01-10T16:16:44.264Z,5.51
2023-01-10T16:19:14.559Z,5.55
2023-01-10T16:21:43.750Z,5.55
2023-01-10T16:24:16.075Z,5.62
2023-01-10T16:26:45.164Z,5.68
2023-01-10T16:29:13.313Z,5.74
2023-01-10T16:31:42.796Z,5.78
2023-01-10T16:34:10.774Z,5.74
2023-01-10T16:36:38.761Z,5.85
2023-01-10T16:39:09.426Z,5.93
2023-01-10T16:41:54.718Z,5.94
2023-01-10T16:44:22.738Z,5.96
2023-01-10T16:46:53.025Z,6.03
2023-01-10T16:49:20.978Z,6.08
2023-01-10T16:51:48.964Z,6.08
2023-01-10T16:54:17.691Z,6.04
2023-01-10T16:56:45.927Z,6.00
2023-01-10T16:59:14.306Z,6.04
2023-01-10T17:01:43.918Z,6.04
2023-01-10T17:04:14.301Z,6.04
2023-01-10T17:06:42.254Z,6.02
2023-01-10T17:09:24.637Z,6.02
2023-01-10T17:11:56.643Z,6.05
2023-01-10T17:14:24.672Z,6.07
2023-01-10T17:16:52.935Z,6.02
2023-01-10T17:19:22.386Z,6.08
2023-01-10T17:21:50.312Z,6.13
2023-01-10T17:24:18.263Z,6.07
2023-01-10T17:26:46.235Z,6.09
2023-01-10T17:29:14.147Z,6.17
2023-01-10T17:31:42.123Z,6.18
2023-01-10T17:34:10.169Z,6.19
2023-01-10T17:36:40.041Z,6.18
2023-01-10T17:39:07.966Z,6.20
2023-01-10T17:41:35.880Z,6.26
2023-01-10T17:44:03.865Z,6.21
2023-01-10T17:46:31.819Z,6.22
2023-01-10T17:48:59.827Z,6.34
2023-01-10T17:51:28.988Z,6.43
2023-01-10T17:53:58.382Z,6.45
2023-01-10T17:56:26.309Z,6.55
2023-01-10T17:58:54.281Z,6.60
2023-01-10T18:01:25.251Z,6.58
2023-01-10T18:03:53.555Z,6.65
2023-01-10T18:06:25.482Z,6.67
2023-01-10T18:08:53.952Z,6.61
2023-01-10T18:11:25.207Z,6.57
2023-01-10T18:13:53.300Z,6.63
2023-01-10T18:16:21.384Z,6.62
2023-01-10T18:18:49.317Z,6.63
2023-01-10T18:21:18.396Z,6.59
2023-01-10T18:23:46.786Z,6.59
2023-01-10T18:26:14.881Z,6.59
2023-01-10T18:28:44.874Z,6.52
2023-01-10T18:31:13.744Z,6.49
2023-01-10T18:33:41.732Z,6.53
2023-01-10T18:36:10.926Z,6.53
2023-01-10T18:38:38.897Z,6.44
2023-01-10T18:41:06.864Z,6.36
2023-01-10T18:43:34.793Z,6.38
2023-01-10T18:46:04.837Z,6.30
2023-01-10T18:48:32.858Z,6.28
2023-01-10T18:51:01.400Z,6.28
2023-01-10T18:53:29.344Z,6.25
2023-01-10T18:55:57.642Z,6.12
2023-01-10T18:58:25.728Z,6.16
2023-01-10T19:00:53.680Z,6.09
2023-01-10T19:03:23.062Z,6.07
2023-01-10T19:05:51.108Z,6.06
2023-01-10T19:08:19.182Z,6.11
2023-01-10T19:11:11.868Z,6.13
2023-01-10T19:13:35.329Z,6.15
2023-01-10T19:16:13.473Z,6.18
2023-01-10T19:18:43.012Z,6.14
2023-01-10T19:21:15.325Z,6.07
2023-01-10T19:23:43.543Z,6.06
2023-01-10T19:26:11.563Z,6.05
2023-01-10T19:28:39.505Z,6.02
2023-01-10T19:31:07.623Z,6.06
2023-01-10T19:33:37.451Z,6.04
2023-01-10T19:36:08.053Z,6.03
2023-01-10T19:38:36.032Z,5.99
2023-01-10T19:41:04.132Z,5.94
2023-01-10T19:43:33.770Z,5.91
2023-01-10T19:46:01.993Z,5.90
2023-01-10T19:48:30.022Z,5.87
2023-01-10T19:50:57.991Z,5.96
2023-01-10T19:53:27.376Z,5.98
2023-01-10T19:56:02.019Z,5.92
2023-01-10T19:58:30.337Z,5.84
2023-01-10T20:00:58.298Z,5.85
2023-01-10T20:03:26.354Z,5.86
2023-01-10T20:05:54.287Z,5.86
2023-01-10T20:08:23.637Z,5.80
2023-01-10T20:10:52.943Z,5.80
2023-01-10T20:13:20.955Z,5.78
2023-01-10T20:15:49.255Z,5.73
2023-01-10T20:18:17.244Z,5.73
2023-01-10T20:20:45.298Z,5.71
2023-01-10T20:23:13.339Z,5.75
2023-01-10T20:25:41.317Z,5.68
2023-01-10T20:28:10.637Z,5.61
2023-01-10T20:30:38.704Z,5.57
2023-01-10T20:33:06.621Z,5.58
2023-01-10T20:35:34.599Z,5.60
2023-01-10T20:38:06.603Z,5.55
2023-01-10T20:40:34.510Z,5.53
2023-01-10T20:43:02.412Z,5.48
2023-01-10T20:45:31.811Z,5.51
2023-01-10T20:47:59.778Z,5.50
2023-01-10T20:50:27.689Z,5.49
2023-01-10T20:52:55.680Z,5.53
2023-01-10T20:55:24.412Z,5.56
2023-01-10T20:57:52.320Z,5.56
2023-01-10T21:00:21.031Z,5.57
2023-01-10T21:02:50.404Z,5.60
2023-01-10T21:05:18.383Z,5.62
2023-01-10T21:07:46.343Z,5.64
2023-01-10T21:10:14.290Z,5.64
2023-01-10T21:12:42.236Z,5.63
2023-01-10T21:15:11.293Z,5.67
2023-01-10T21:17:40.525Z,5.69
2023-01-10T21:20:11.572Z,5.61
2023-01-10T21:22:39.476Z,5.61
2023-01-10T21:25:07.935Z,5.61
2023-01-10T21:27:35.843Z,5.63
2023-01-10T21:30:06.169Z,5.66
2023-01-10T21:32:34.138Z,5.65
2023-01-10T21:35:02.065Z,5.62
2023-01-10T21:37:31.368Z,5.64
2023-01-10T21:39:59.766Z,5.60
2023-01-10T21:42:38.103Z,5.63
2023-01-10T21:45:07.753Z,5.71
2023-01-10T21:47:36.405Z,5.76
2023-01-10T21:50:04.612Z,5.80
2023-01-10T21:52:33.893Z,5.83
2023-01-10T21:55:01.872Z,5.88
2023-01-10T21:57:30.703Z,5.92
2023-01-10T21:59:58.630Z,5.92
2023-01-10T22:02:27.440Z,5.94
2023-01-10T22:04:55.512Z,5.96
2023-01-10T22:07:24.075Z,5.94
2023-01-10T22:09:53.583Z,5.91
2023-01-10T22:12:24.720Z,5.88
2023-01-10T22:14:52.631Z,5.94
2023-01-10T22:17:20.564Z,5.93
2023-01-10T22:19:48.493Z,5.95
2023-01-10T22:22:17.537Z,6.00
2023-01-10T22:24:47.599Z,6.01
2023-01-10T22:27:16.979Z,6.04
2023-01-10T22:29:45.363Z,6.02
2023-01-10T22:32:13.347Z,5.98
2023-01-10T22:34:41.273Z,5.96
2023-01-10T22:37:09.224Z,6.02
2023-01-10T22:39:37.138Z,5.96
2023-01-10T22:42:05.318Z,5.97
2023-01-10T22:44:34.633Z,5.97
2023-01-10T22:47:02.574Z,5.92
2023-01-10T22:49:30.525Z,5.90
2023-01-10T22:51:58.470Z,5.88
2023-01-10T22:54:26.421Z,5.90
2023-01-10T22:56:54.392Z,5.94
2023-01-10T22:59:22.332Z,5.98
2023-01-10T23:01:51.623Z,5.98
2023-01-10T23:04:22.085Z,6.00
2023-01-10T23:06:50.311Z,6.02
2023-01-10T23:09:18.445Z,6.07
2023-01-10T23:11:46.394Z,6.06
2023-01-10T23:14:14.712Z,5.98
2023-01-10T23:16:42.744Z,6.03
2023-01-10T23:19:12.651Z,5.94
2023-01-10T23:21:40.615Z,5.92
2023-01-10T23:24:08.949Z,5.98
2023-01-10T23:26:36.947Z,6.00
2023-01-10T23:29:04.933Z,5.80
2023-01-10T23:31:32.942Z,6.04
2023-01-10T23:34:00.943Z,6.06
2023-01-10T23:36:30.326Z,6.04
2023-01-10T23:38:58.265Z,6.08
2023-01-10T23:41:26.245Z,6.07
2023-01-10T23:43:54.297Z,6.07
2023-01-10T23:46:22.318Z,6.10
2023-01-10T23:48:50.284Z,6.10
2023-01-10T23:51:18.294Z,6.14
2023-01-10T23:53:47.629Z,6.12
2023-01-10T23:56:15.786Z,6.11
2023-01-10T23:58:43.792Z,6.11
